createdAt,value
2019-02-24T00:01:04.727Z,99233.11
2019-02-24T00:03:38.656Z,99214.30
2019-02-24T00:06:12.733Z,99201.22
2019-02-24T00:08:47.038Z,99197.58
2019-02-24T00:11:21.305Z,99201.97
2019-02-24T00:13:55.615Z,99224.86
2019-02-24T00:16:30.001Z,99217.97
2019-02-24T00:19:04.138Z,99224.25
2019-02-24T00:21:38.644Z,99225.30
2019-02-24T00:24:12.766Z,99250.58
2019-02-24T00:26:47.154Z,99260.63
2019-02-24T00:29:21.420Z,99247.76
2019-02-24T00:31:55.853Z,99238.25
2019-02-24T00:34:30.074Z,99242.86
2019-02-24T00:37:04.223Z,99230.03
2019-02-24T00:39:38.338Z,99226.45
2019-02-24T00:42:12.629Z,99241.94
2019-02-24T00:44:46.717Z,99243.83
2019-02-24T00:47:21.262Z,99255.73
2019-02-24T00:49:55.319Z,99266.93
2019-02-24T00:52:29.806Z,99277.48
2019-02-24T00:55:03.809Z,99275.27
2019-02-24T00:57:38.107Z,99260.86
2019-02-24T01:00:13.035Z,99237.44
2019-02-24T01:02:47.828Z,99233.36
2019-02-24T01:05:22.258Z,99233.08
2019-02-24T01:07:56.284Z,99235.48
2019-02-24T01:10:31.343Z,99244.89
2019-02-24T01:13:05.725Z,99259.30
2019-02-24T01:15:39.936Z,99250.86
2019-02-24T01:18:13.930Z,99257.65
2019-02-24T01:20:48.210Z,99251.89
2019-02-24T01:23:22.733Z,99243.64
2019-02-24T01:25:56.817Z,99248.57
2019-02-24T01:28:31.252Z,99250.75
2019-02-24T01:31:06.665Z,99246.89
2019-02-24T01:33:41.093Z,99251.51
2019-02-24T01:36:15.268Z,99251.19
2019-02-24T01:38:50.314Z,99254.73
2019-02-24T01:41:24.751Z,99259.34
2019-02-24T01:43:59.168Z,99274.50
2019-02-24T01:46:33.337Z,99279.40
2019-02-24T01:49:07.535Z,99274.50
2019-02-24T01:51:41.992Z,99287.23
2019-02-24T01:54:17.138Z,99294.34
2019-02-24T01:56:51.399Z,99282.01
2019-02-24T01:59:25.665Z,99274.39
2019-02-24T02:01:59.973Z,99307.53
2019-02-24T02:04:34.073Z,99388.72
2019-02-24T02:07:08.153Z,99467.30
2019-02-24T02:09:42.334Z,99455.60
2019-02-24T02:12:18.887Z,99420.43
2019-02-24T02:14:52.793Z,99443.73
2019-02-24T02:17:27.161Z,99467.69
2019-02-24T02:20:02.503Z,99477.19
2019-02-24T02:22:36.533Z,99505.19
2019-02-24T02:25:11.817Z,99513.87
2019-02-24T02:27:46.112Z,99525.03
2019-02-24T02:30:20.157Z,99539.36
2019-02-24T02:32:54.347Z,99549.61
2019-02-24T02:35:28.566Z,99569.13
2019-02-24T02:38:02.884Z,99582.20
2019-02-24T02:40:37.148Z,99597.33
2019-02-24T02:43:11.923Z,99610.08
2019-02-24T02:45:46.253Z,99580.73
2019-02-24T02:48:20.412Z,99569.01
2019-02-24T02:50:54.617Z,99543.11
2019-02-24T02:53:28.733Z,99544.66
2019-02-24T02:56:03.736Z,99526.17
2019-02-24T02:58:37.859Z,99539.75
2019-02-24T03:01:12.257Z,99544.66
2019-02-24T03:03:46.388Z,99537.03
2019-02-24T03:06:38.852Z,99527.20
2019-02-24T03:09:13.505Z,99518.23
2019-02-24T03:11:47.430Z,99523.87
2019-02-24T03:14:21.472Z,99538.48
2019-02-24T03:16:55.629Z,99552.06
2019-02-24T03:19:30.046Z,99571.08
2019-02-24T03:22:04.368Z,99588.23
2019-02-24T03:24:38.521Z,99563.67
2019-02-24T03:27:12.671Z,99536.51
2019-02-24T03:29:46.812Z,99495.12
2019-02-24T03:32:20.941Z,99477.78
2019-02-24T03:34:55.164Z,99480.92
2019-02-24T03:37:29.766Z,99480.39
2019-02-24T03:40:04.006Z,99496.36
2019-02-24T03:42:38.112Z,99473.48
2019-02-24T03:45:12.310Z,99461.59
2019-02-24T03:47:46.668Z,99485.00
2019-02-24T03:50:20.923Z,99512.98
2019-02-24T03:52:55.100Z,99494.18
2019-02-24T03:55:29.462Z,99473.48
2019-02-24T03:58:03.528Z,99488.42
2019-02-24T04:00:37.603Z,99489.78
2019-02-24T04:03:12.076Z,99492.50
2019-02-24T04:05:46.361Z,99494.18
2019-02-24T04:08:20.766Z,99527.51
2019-02-24T04:10:55.045Z,99585.48
2019-02-24T04:13:29.198Z,99617.75
2019-02-24T04:16:03.250Z,99650.02
2019-02-24T04:18:37.604Z,99669.56
2019-02-24T04:21:11.862Z,99678.94
2019-02-24T04:23:46.142Z,99699.84
2019-02-24T04:26:21.322Z,99692.52
2019-02-24T04:28:55.525Z,99686.80
2019-02-24T04:31:30.054Z,99670.17
2019-02-24T04:34:04.552Z,99660.02
2019-02-24T04:36:38.513Z,99638.09
2019-02-24T04:39:12.826Z,99599.45
2019-02-24T04:41:47.467Z,99582.20
2019-02-24T04:44:21.373Z,99568.42
2019-02-24T04:46:55.433Z,99558.39
2019-02-24T04:49:29.667Z,99571.25
2019-02-24T04:52:03.871Z,99538.55
2019-02-24T04:54:38.022Z,99543.24
2019-02-24T04:57:12.395Z,99543.24
2019-02-24T04:59:46.452Z,99547.97
2019-02-24T05:02:20.564Z,99554.11
2019-02-24T05:04:54.780Z,99536.45
2019-02-24T05:07:29.122Z,99507.94
2019-02-24T05:10:03.396Z,99488.64
2019-02-24T05:12:37.830Z,99494.69
2019-02-24T05:15:11.877Z,99522.78
2019-02-24T05:17:46.130Z,99528.22
2019-02-24T05:20:20.269Z,99511.95
2019-02-24T05:22:54.939Z,99509.77
2019-02-24T05:25:30.110Z,99526.35
2019-02-24T05:28:04.378Z,99548.82
2019-02-24T05:30:38.503Z,99563.77
2019-02-24T05:33:12.523Z,99568.33
2019-02-24T05:35:47.033Z,99560.19
2019-02-24T05:38:21.356Z,99557.67
2019-02-24T05:40:55.778Z,99548.17
2019-02-24T05:43:31.066Z,99540.34
2019-02-24T05:46:05.330Z,99556.31
2019-02-24T05:48:39.486Z,99564.80
2019-02-24T05:51:13.580Z,99547.97
2019-02-24T05:53:47.446Z,99532.41
2019-02-24T05:56:22.024Z,99523.44
2019-02-24T05:58:56.230Z,99524.80
2019-02-24T06:01:30.652Z,99517.35
2019-02-24T06:04:04.768Z,99533.15
2019-02-24T06:06:39.308Z,99517.68
2019-02-24T06:09:13.479Z,99497.93
2019-02-24T06:11:47.698Z,99505.25
2019-02-24T06:14:21.903Z,99483.20
2019-02-24T06:16:56.067Z,99462.01
2019-02-24T06:19:30.321Z,99458.05
2019-02-24T06:22:04.441Z,99445.92
2019-02-24T06:24:38.479Z,99451.35
2019-02-24T06:27:12.675Z,99447.81
2019-02-24T06:29:47.018Z,99448.42
2019-02-24T06:32:21.320Z,99448.42
2019-02-24T06:34:55.674Z,99446.75
2019-02-24T06:37:30.131Z,99435.06
2019-02-24T06:40:04.554Z,99442.06
2019-02-24T06:42:39.066Z,99432.55
2019-02-24T06:45:13.508Z,99419.30
2019-02-24T06:47:48.245Z,99415.02
2019-02-24T06:50:23.305Z,99413.34
2019-02-24T06:52:57.364Z,99399.11
2019-02-24T06:55:31.800Z,99399.85
2019-02-24T06:58:07.784Z,99388.78
2019-02-24T07:00:42.114Z,99376.03
2019-02-24T07:03:17.647Z,99372.81
2019-02-24T07:05:52.569Z,99367.78
2019-02-24T07:08:28.122Z,99367.88
2019-02-24T07:11:02.244Z,99361.41
2019-02-24T07:13:36.685Z,99356.84
2019-02-24T07:16:10.880Z,99336.47
2019-02-24T07:18:45.225Z,99329.97
2019-02-24T07:21:19.274Z,99319.64
2019-02-24T07:23:53.403Z,99315.03
2019-02-24T07:26:27.683Z,99315.25
2019-02-24T07:29:01.969Z,99315.36
2019-02-24T07:31:36.009Z,99322.47
2019-02-24T07:34:10.037Z,99322.68
2019-02-24T07:36:44.354Z,99319.43
2019-02-24T07:39:18.489Z,99318.69
2019-02-24T07:41:52.510Z,99314.00
2019-02-24T07:44:26.492Z,99302.60
2019-02-24T07:47:00.747Z,99298.64
2019-02-24T07:49:35.088Z,99303.35
2019-02-24T07:52:09.340Z,99304.07
2019-02-24T07:54:43.676Z,99294.03
2019-02-24T07:57:17.949Z,99295.20
2019-02-24T07:59:52.228Z,99296.75
2019-02-24T08:02:26.348Z,99294.03
2019-02-24T08:05:00.568Z,99297.81
2019-02-24T08:07:34.680Z,99271.69
2019-02-24T08:10:09.353Z,99267.63
2019-02-24T08:12:43.521Z,99266.05
2019-02-24T08:15:17.674Z,99266.37
2019-02-24T08:17:51.827Z,99262.91
2019-02-24T08:20:25.926Z,99252.26
2019-02-24T08:23:00.134Z,99244.11
2019-02-24T08:25:34.473Z,99243.67
2019-02-24T08:28:08.445Z,99240.03
2019-02-24T08:30:44.165Z,99239.82
2019-02-24T08:33:18.339Z,99228.95
2019-02-24T08:35:52.681Z,99231.99
2019-02-24T08:38:26.732Z,99232.31
2019-02-24T08:41:00.801Z,99224.45
2019-02-24T08:43:35.769Z,99217.98
2019-02-24T08:46:09.856Z,99215.80
2019-02-24T08:48:44.064Z,99206.80
2019-02-24T08:51:18.022Z,99210.27
2019-02-24T08:53:52.237Z,99206.61
2019-02-24T08:56:26.734Z,99210.16
2019-02-24T08:59:01.905Z,99201.18
2019-02-24T09:01:36.284Z,99200.64
2019-02-24T09:04:11.107Z,99197.93
2019-02-24T09:06:45.405Z,99196.89
2019-02-24T09:09:19.570Z,99194.17
2019-02-24T09:11:53.613Z,99188.20
2019-02-24T09:14:27.587Z,99192.06
2019-02-24T09:17:01.905Z,99196.14
2019-02-24T09:19:37.115Z,99182.88
2019-02-24T09:22:12.488Z,99183.20
2019-02-24T09:24:46.799Z,99182.12
2019-02-24T09:27:20.994Z,99178.80
2019-02-24T09:29:55.083Z,99177.23
2019-02-24T09:32:29.762Z,99177.44
2019-02-24T09:35:07.214Z,99177.23
2019-02-24T09:37:41.461Z,99168.25
2019-02-24T09:40:15.758Z,99169.30
2019-02-24T09:42:49.950Z,99166.05
2019-02-24T09:45:24.057Z,99168.54
2019-02-24T09:47:58.149Z,99159.67
2019-02-24T09:50:32.370Z,99159.14
2019-02-24T09:53:09.484Z,99160.17
2019-02-24T09:55:43.604Z,99157.24
2019-02-24T09:58:17.717Z,99152.34
2019-02-24T10:00:52.027Z,99154.02
2019-02-24T10:03:27.212Z,99152.12
2019-02-24T10:06:01.245Z,99144.30
2019-02-24T10:08:35.494Z,99145.66
2019-02-24T10:11:10.291Z,99141.89
2019-02-24T10:13:44.754Z,99136.46
2019-02-24T10:16:19.253Z,99142.40
2019-02-24T10:18:53.242Z,99138.64
2019-02-24T10:21:27.787Z,99143.55
2019-02-24T10:24:01.828Z,99141.97
2019-02-24T10:26:36.397Z,99127.55
2019-02-24T10:29:10.675Z,99127.69
2019-02-24T10:31:44.927Z,99121.11
2019-02-24T10:34:20.158Z,99116.82
2019-02-24T10:36:54.287Z,99111.39
2019-02-24T10:39:29.988Z,99112.30
2019-02-24T10:42:04.341Z,99104.38
2019-02-24T10:44:38.600Z,99100.30
2019-02-24T10:47:12.813Z,99105.52
2019-02-24T10:49:48.126Z,99104.16
2019-02-24T10:52:22.341Z,99108.55
2019-02-24T10:54:56.525Z,99109.91
2019-02-24T10:57:30.929Z,99121.91
2019-02-24T11:00:05.149Z,99115.12
2019-02-24T11:02:39.687Z,99117.84
2019-02-24T11:05:14.328Z,99115.44
2019-02-24T11:07:48.557Z,99121.38
2019-02-24T11:10:22.996Z,99123.87
2019-02-24T11:12:58.301Z,99123.05
2019-02-24T11:15:32.494Z,99119.30
2019-02-24T11:18:07.004Z,99127.73
2019-02-24T11:20:41.511Z,99130.77
2019-02-24T11:23:15.718Z,99132.44
2019-02-24T11:25:50.144Z,99124.61
2019-02-24T11:28:24.400Z,99123.25
2019-02-24T11:30:59.605Z,99128.46
2019-02-24T11:33:33.965Z,99126.56
2019-02-24T11:36:07.991Z,99126.88
2019-02-24T11:38:43.335Z,99130.95
2019-02-24T11:41:17.632Z,99139.93
2019-02-24T11:43:52.224Z,99138.03
2019-02-24T11:46:26.547Z,99131.56
2019-02-24T11:49:00.718Z,99119.11
2019-02-24T11:51:34.719Z,99116.93
2019-02-24T11:54:09.099Z,99110.14
2019-02-24T11:56:43.177Z,99113.98
2019-02-24T11:59:17.436Z,99111.81
2019-02-24T12:01:53.489Z,99122.14
2019-02-24T12:04:27.984Z,99125.46
2019-02-24T12:07:01.770Z,99123.59
2019-02-24T12:09:36.184Z,99120.34
2019-02-24T12:12:10.321Z,99122.02
2019-02-24T12:14:45.034Z,99116.58
2019-02-24T12:17:19.274Z,99125.05
2019-02-24T12:19:53.783Z,99129.41
2019-02-24T12:22:34.650Z,99130.05
2019-02-24T12:25:12.218Z,99131.09
2019-02-24T12:27:46.511Z,99128.69
2019-02-24T12:30:24.170Z,99127.33
2019-02-24T12:33:00.637Z,99135.27
2019-02-24T12:35:34.838Z,99131.19
2019-02-24T12:38:09.217Z,99132.32
2019-02-24T12:40:44.336Z,99135.04
2019-02-24T12:43:19.789Z,99138.58
2019-02-24T12:45:56.062Z,99146.23
2019-02-24T12:48:30.364Z,99144.33
2019-02-24T12:51:04.757Z,99142.44
2019-02-24T12:53:38.819Z,99142.44
2019-02-24T12:56:14.846Z,99149.55
2019-02-24T12:58:48.907Z,99146.83
2019-02-24T13:01:23.359Z,99149.86
2019-02-24T13:03:57.803Z,99153.41
2019-02-24T13:06:32.371Z,99157.80
2019-02-24T13:09:10.799Z,99163.77
2019-02-24T13:11:46.094Z,99164.91
2019-02-24T13:14:20.352Z,99164.05
2019-02-24T13:16:54.543Z,99163.84
2019-02-24T13:19:28.791Z,99173.89
2019-02-24T13:22:02.994Z,99171.48
2019-02-24T13:24:37.110Z,99179.95
2019-02-24T13:27:11.109Z,99180.78
2019-02-24T13:29:45.454Z,99176.70
2019-02-24T13:32:19.769Z,99172.09
2019-02-24T13:34:53.971Z,99178.88
2019-02-24T13:37:27.947Z,99177.52
2019-02-24T13:40:02.185Z,99188.72
2019-02-24T13:42:37.714Z,99186.81
2019-02-24T13:45:14.058Z,99186.31
2019-02-24T13:47:48.124Z,99184.09
2019-02-24T13:50:23.136Z,99190.67
2019-02-24T13:52:57.349Z,99198.83
2019-02-24T13:55:31.608Z,99197.19
2019-02-24T13:58:05.488Z,99205.94
2019-02-24T14:00:40.736Z,99212.02
2019-02-24T14:03:14.951Z,99207.62
2019-02-24T14:05:49.320Z,99210.94
2019-02-24T14:08:23.521Z,99214.20
2019-02-24T14:10:57.497Z,99211.48
2019-02-24T14:13:32.138Z,99216.91
2019-02-24T14:16:06.320Z,99220.99
2019-02-24T14:18:40.313Z,99219.09
2019-02-24T14:21:14.377Z,99227.57
2019-02-24T14:23:48.531Z,99230.83
2019-02-24T14:26:23.672Z,99240.13
2019-02-24T14:28:57.597Z,99240.95
2019-02-24T14:31:31.756Z,99248.56
2019-02-24T14:34:06.160Z,99247.74
2019-02-24T14:36:40.409Z,99252.14
2019-02-24T14:39:14.715Z,99258.41
2019-02-24T14:41:48.726Z,99264.70
2019-02-24T14:44:23.512Z,99264.16
2019-02-24T14:46:57.747Z,99263.84
2019-02-24T14:49:32.060Z,99275.03
2019-02-24T14:52:07.239Z,99273.67
2019-02-24T14:54:41.537Z,99278.07
2019-02-24T14:57:16.691Z,99283.51
2019-02-24T14:59:51.827Z,99281.93
2019-02-24T15:02:26.048Z,99281.61
2019-02-24T15:05:00.308Z,99282.97
2019-02-24T15:07:35.525Z,99290.09
2019-02-24T15:10:11.067Z,99293.63
2019-02-24T15:12:46.030Z,99289.02
2019-02-24T15:15:21.174Z,99288.73
2019-02-24T15:17:56.761Z,99300.75
2019-02-24T15:20:31.179Z,99294.45
2019-02-24T15:23:06.723Z,99298.03
2019-02-24T15:25:41.041Z,99293.41
2019-02-24T15:28:15.028Z,99292.91
2019-02-24T15:30:49.064Z,99299.70
2019-02-24T15:33:23.240Z,99308.14
2019-02-24T15:35:57.440Z,99314.44
2019-02-24T15:38:31.513Z,99307.11
2019-02-24T15:41:05.813Z,99309.00
2019-02-24T15:43:39.889Z,99308.47
2019-02-24T15:46:14.272Z,99310.65
2019-02-24T15:48:48.834Z,99321.02
2019-02-24T15:51:23.333Z,99315.58
2019-02-24T15:53:57.454Z,99325.39
2019-02-24T15:56:31.742Z,99321.30
2019-02-24T15:59:05.968Z,99332.00
2019-02-24T16:01:40.375Z,99328.96
2019-02-24T16:04:14.514Z,99327.06
2019-02-24T16:06:49.622Z,99330.32
2019-02-24T16:09:23.661Z,99336.08
2019-02-24T16:11:58.004Z,99330.83
2019-02-24T16:14:31.972Z,99332.50
2019-02-24T16:17:10.413Z,99332.50
2019-02-24T16:19:44.577Z,99339.63
2019-02-24T16:22:18.892Z,99329.78
2019-02-24T16:24:53.072Z,99332.83
2019-02-24T16:27:27.222Z,99327.92
2019-02-24T16:30:01.512Z,99325.20
2019-02-24T16:32:35.455Z,99317.04
2019-02-24T16:35:10.397Z,99322.16
2019-02-24T16:37:45.579Z,99313.47
2019-02-24T16:40:20.884Z,99320.58
2019-02-24T16:42:55.201Z,99321.63
2019-02-24T16:45:29.511Z,99316.19
2019-02-24T16:48:03.936Z,99314.83
2019-02-24T16:50:38.200Z,99315.05
2019-02-24T16:53:14.093Z,99318.08
2019-02-24T16:55:48.304Z,99313.47
2019-02-24T16:58:22.311Z,99318.91
2019-02-24T17:00:56.536Z,99309.07
2019-02-24T17:03:30.936Z,99314.51
2019-02-24T17:06:06.182Z,99312.01
2019-02-24T17:08:40.213Z,99306.06
2019-02-24T17:11:14.850Z,99304.70
2019-02-24T17:13:49.090Z,99311.19
2019-02-24T17:16:23.040Z,99306.57
2019-02-24T17:18:57.266Z,99304.39
2019-02-24T17:21:31.575Z,99300.30
2019-02-24T17:24:05.892Z,99304.39
2019-02-24T17:26:39.976Z,99303.34
2019-02-24T17:29:14.095Z,99304.39
2019-02-24T17:31:48.361Z,99301.34
2019-02-24T17:34:22.482Z,99301.98
2019-02-24T17:36:56.916Z,99303.03
2019-02-24T17:39:31.019Z,99298.95
2019-02-24T17:42:05.038Z,99296.23
2019-02-24T17:44:39.215Z,99289.43
2019-02-24T17:47:14.462Z,99285.89
2019-02-24T17:49:48.503Z,99291.33
2019-02-24T17:52:22.834Z,99284.21
2019-02-24T17:54:57.088Z,99284.21
2019-02-24T17:57:31.326Z,99283.07
2019-02-24T18:00:05.450Z,99279.31
2019-02-24T18:02:39.948Z,99279.81
2019-02-24T18:05:14.033Z,99279.31
2019-02-24T18:07:48.160Z,99280.34
2019-02-24T18:10:22.369Z,99280.34
2019-02-24T18:12:56.629Z,99278.77
2019-02-24T18:15:30.668Z,99276.27
2019-02-24T18:18:04.814Z,99277.31
2019-02-24T18:20:39.034Z,99273.77
2019-02-24T18:23:13.206Z,99267.80
2019-02-24T18:25:47.440Z,99262.89
2019-02-24T18:28:21.811Z,99266.12
2019-02-24T18:30:56.276Z,99260.68
2019-02-24T18:33:30.517Z,99263.94
2019-02-24T18:36:04.713Z,99259.86
2019-02-24T18:38:39.156Z,99259.03
2019-02-24T18:41:13.425Z,99253.28
2019-02-24T18:43:47.762Z,99251.92
2019-02-24T18:46:22.026Z,99250.88
2019-02-24T18:48:56.495Z,99246.48
2019-02-24T18:51:30.838Z,99249.20
2019-02-24T18:54:05.440Z,99251.09
2019-02-24T18:56:39.621Z,99238.86
2019-02-24T18:59:13.816Z,99247.52
2019-02-24T19:01:47.925Z,99242.09
2019-02-24T19:04:22.138Z,99247.52
2019-02-24T19:06:58.145Z,99238.55
2019-02-24T19:09:32.705Z,99236.87
2019-02-24T19:12:06.947Z,99227.03
2019-02-24T19:14:41.218Z,99230.89
2019-02-24T19:17:15.573Z,99234.97
2019-02-24T19:19:49.859Z,99230.07
2019-02-24T19:22:24.124Z,99225.39
2019-02-24T19:24:58.045Z,99222.13
2019-02-24T19:27:32.085Z,99225.89
2019-02-24T19:30:06.635Z,99223.17
2019-02-24T19:32:41.337Z,99221.81
2019-02-24T19:35:15.988Z,99218.27
2019-02-24T19:37:50.074Z,99216.59
2019-02-24T19:40:24.539Z,99210.34
2019-02-24T19:42:58.814Z,99210.02
2019-02-24T19:45:33.131Z,99211.70
2019-02-24T19:48:07.123Z,99213.38
2019-02-24T19:50:41.659Z,99211.70
2019-02-24T19:53:15.899Z,99215.77
2019-02-24T19:55:50.225Z,99207.62
2019-02-24T19:58:24.546Z,99207.30
2019-02-24T20:00:58.767Z,99201.87
2019-02-24T20:03:32.912Z,99196.97
2019-02-24T20:06:07.102Z,99196.33
2019-02-24T20:08:41.211Z,99202.63
2019-02-24T20:11:15.414Z,99193.11
2019-02-24T20:13:49.679Z,99187.89
2019-02-24T20:16:23.909Z,99188.72
2019-02-24T20:18:58.002Z,99188.72
2019-02-24T20:21:32.401Z,99189.75
2019-02-24T20:24:06.676Z,99193.84
2019-02-24T20:26:40.850Z,99186.22
2019-02-24T20:29:15.248Z,99188.94
2019-02-24T20:31:49.478Z,99182.67
2019-02-24T20:34:25.848Z,99183.72
2019-02-24T20:36:59.141Z,99184.03
2019-02-24T20:39:33.215Z,99182.05
2019-02-24T20:42:07.400Z,99181.50
2019-02-24T20:44:41.652Z,99178.50
2019-02-24T20:47:15.698Z,99180.69
2019-02-24T20:49:49.876Z,99178.50
2019-02-24T20:52:23.767Z,99173.28
2019-02-24T20:54:57.948Z,99171.39
2019-02-24T20:57:32.175Z,99168.89
2019-02-24T21:00:06.507Z,99168.07
2019-02-24T21:02:42.117Z,99168.89
2019-02-24T21:05:16.471Z,99167.53
2019-02-24T21:07:50.697Z,99159.38
2019-02-24T21:10:24.883Z,99156.34
2019-02-24T21:12:59.412Z,99158.75
2019-02-24T21:15:33.779Z,99168.26
2019-02-24T21:18:08.192Z,99161.46
2019-02-24T21:20:42.382Z,99155.74
2019-02-24T21:23:16.864Z,99148.09
2019-02-24T21:25:50.958Z,99150.81
2019-02-24T21:28:25.484Z,99147.80
2019-02-24T21:30:59.521Z,99149.98
2019-02-24T21:33:33.657Z,99149.98
2019-02-24T21:36:07.871Z,99146.45
2019-02-24T21:38:42.412Z,99146.13
2019-02-24T21:41:16.359Z,99147.80
2019-02-24T21:43:51.819Z,99143.63
2019-02-24T21:46:25.983Z,99148.03
2019-02-24T21:49:00.399Z,99147.17
2019-02-24T21:51:34.701Z,99149.07
2019-02-24T21:54:09.434Z,99140.60
2019-02-24T21:56:43.621Z,99139.23
2019-02-24T21:59:17.901Z,99140.60
2019-02-24T22:01:51.975Z,99141.96
2019-02-24T22:04:26.328Z,99139.15
2019-02-24T22:07:00.604Z,99146.48
2019-02-24T22:09:34.787Z,99141.86
2019-02-24T22:12:08.824Z,99139.69
2019-02-24T22:14:45.247Z,99150.02
2019-02-24T22:17:19.535Z,99150.55
2019-02-24T22:19:53.803Z,99150.55
2019-02-24T22:22:28.149Z,99149.41
2019-02-24T22:25:02.186Z,99148.05
2019-02-24T22:27:36.486Z,99149.92
2019-02-24T22:30:12.110Z,99148.28
2019-02-24T22:32:46.308Z,99147.96
2019-02-24T22:35:20.769Z,99147.96
2019-02-24T22:37:54.869Z,99146.28
2019-02-24T22:40:29.045Z,99152.57
2019-02-24T22:43:03.286Z,99153.39
2019-02-24T22:45:38.302Z,99152.26
2019-02-24T22:48:12.482Z,99156.02
2019-02-24T22:50:46.646Z,99151.12
2019-02-24T22:53:20.768Z,99152.48
2019-02-24T22:55:54.918Z,99150.80
2019-02-24T22:58:29.226Z,99150.80
2019-02-24T23:01:18.663Z,99155.41
2019-02-24T23:03:54.712Z,99153.73
2019-02-24T23:06:28.929Z,99160.75
2019-02-24T23:09:03.051Z,99156.67
2019-02-24T23:11:38.559Z,99159.92
2019-02-24T23:14:12.626Z,99158.76
2019-02-24T23:16:46.682Z,99161.19
2019-02-24T23:19:20.673Z,99165.27
2019-02-24T23:21:54.682Z,99164.95
2019-02-24T23:24:28.945Z,99161.69
2019-02-24T23:27:03.132Z,99164.13
2019-02-24T23:29:37.268Z,99172.56
2019-02-24T23:32:11.350Z,99170.37
2019-02-24T23:34:45.755Z,99177.39
2019-02-24T23:37:19.841Z,99178.21
2019-02-24T23:39:53.975Z,99181.69
2019-02-24T23:42:28.271Z,99183.36
2019-02-24T23:45:10.002Z,99181.38
2019-02-24T23:47:38.828Z,99191.92
2019-02-24T23:50:13.341Z,99197.35
2019-02-24T23:52:47.547Z,99200.06
2019-02-24T23:55:21.833Z,99195.99
2019-02-24T23:57:56.319Z,99206.26
